Terminal Aerodrome Forecast
Issued by NWS Grand Forks, ND

Home | Current Version | Previous Version | Graphics & Text | Print | Product List | Glossary On
Versions: 1 2 3 4 5 6 7 8 9 10 11 12 13 14
011
FTUS43 KFGF 051647 AAA
TAFFAR
TAF AMD
KFAR 051647Z 0517/0612 19011KT P6SM SKC
     FM051930 22012KT P6SM SKC
     FM052100 24016G24KT P6SM SKC
     FM060100 23010KT P6SM SKC
     FM060300 20009KT P6SM FEW250=

USA.gov is the U.S. government's official web portal to all federal, state and local government web resources and services.